Terminal Aerodrome Forecast
Issued by NWS Sterling, VA

Current Version | Previous Version | Text Only | Print | Product List | Glossary Off
Versions: 1 2 3 4 5 6 7 8 9 10 11 12 13 14 15 16

784
FTUS41 KLWX 110520
TAFMRB
TAF
KMRB 110520Z 1106/1206 28013G20KT P6SM SCT100
     FM111500 30016G25KT P6SM BKN050
     FM120000 30010KT P6SM FEW250=

USA.gov is the U.S. government's official web portal to all federal, state and local government web resources and services.